sensor_id;sensor_type;location;lat;lon;timestamp;P1;durP1;ratioP1;P2;durP2;ratioP2
45206;SDS011;30950;53.086;21.576;2023-04-06T00:01:16;58.15;;;24.65;;
45206;SDS011;30950;53.086;21.576;2023-04-06T00:03:43;49.17;;;20.88;;
45206;SDS011;30950;53.086;21.576;2023-04-06T00:06:10;45.42;;;21.48;;
45206;SDS011;30950;53.086;21.576;2023-04-06T00:08:38;44.88;;;20.70;;
45206;SDS011;30950;53.086;21.576;2023-04-06T00:11:05;41.95;;;19.55;;
45206;SDS011;30950;53.086;21.576;2023-04-06T00:13:32;37.78;;;16.80;;
45206;SDS011;30950;53.086;21.576;2023-04-06T00:16:00;40.58;;;19.67;;
45206;SDS011;30950;53.086;21.576;2023-04-06T00:18:27;37.45;;;18.67;;
45206;SDS011;30950;53.086;21.576;2023-04-06T00:20:54;41.95;;;19.98;;
45206;SDS011;30950;53.086;21.576;2023-04-06T00:23:22;28.90;;;15.82;;
45206;SDS011;30950;53.086;21.576;2023-04-06T00:25:49;18.33;;;11.68;;
45206;SDS011;30950;53.086;21.576;2023-04-06T00:28:17;26.52;;;13.63;;
45206;SDS011;30950;53.086;21.576;2023-04-06T00:30:44;21.02;;;10.52;;
45206;SDS011;30950;53.086;21.576;2023-04-06T00:33:11;18.38;;;9.23;;
45206;SDS011;30950;53.086;21.576;2023-04-06T00:35:39;21.48;;;10.98;;
45206;SDS011;30950;53.086;21.576;2023-04-06T00:38:06;20.92;;;10.48;;
45206;SDS011;30950;53.086;21.576;2023-04-06T00:40:33;17.38;;;10.50;;
45206;SDS011;30950;53.086;21.576;2023-04-06T00:43:02;22.02;;;11.35;;
45206;SDS011;30950;53.086;21.576;2023-04-06T00:45:29;19.00;;;10.45;;
45206;SDS011;30950;53.086;21.576;2023-04-06T00:47:56;21.92;;;11.48;;
45206;SDS011;30950;53.086;21.576;2023-04-06T00:50:24;26.08;;;13.27;;
45206;SDS011;30950;53.086;21.576;2023-04-06T00:52:52;22.73;;;12.43;;
45206;SDS011;30950;53.086;21.576;2023-04-06T00:55:26;27.08;;;12.05;;
45206;SDS011;30950;53.086;21.576;2023-04-06T00:57:53;22.85;;;11.02;;
45206;SDS011;30950;53.086;21.576;2023-04-06T01:00:23;23.73;;;12.57;;
45206;SDS011;30950;53.086;21.576;2023-04-06T01:02:56;21.98;;;11.65;;
45206;SDS011;30950;53.086;21.576;2023-04-06T01:05:33;20.65;;;11.23;;
45206;SDS011;30950;53.086;21.576;2023-04-06T01:08:02;22.65;;;10.77;;
45206;SDS011;30950;53.086;21.576;2023-04-06T01:10:29;22.15;;;10.82;;
45206;SDS011;30950;53.086;21.576;2023-04-06T01:13:15;19.00;;;9.43;;
45206;SDS011;30950;53.086;21.576;2023-04-06T01:15:50;20.30;;;9.43;;
45206;SDS011;30950;53.086;21.576;2023-04-06T01:18:29;19.17;;;8.82;;
45206;SDS011;30950;53.086;21.576;2023-04-06T01:21:16;15.57;;;8.93;;
45206;SDS011;30950;53.086;21.576;2023-04-06T01:24:04;19.65;;;8.63;;
45206;SDS011;30950;53.086;21.576;2023-04-06T01:26:43;15.88;;;8.73;;
45206;SDS011;30950;53.086;21.576;2023-04-06T01:29:12;16.52;;;8.73;;
45206;SDS011;30950;53.086;21.576;2023-04-06T01:31:39;23.90;;;8.65;;
45206;SDS011;30950;53.086;21.576;2023-04-06T01:34:07;12.95;;;7.85;;
45206;SDS011;30950;53.086;21.576;2023-04-06T01:36:35;11.32;;;6.78;;
45206;SDS011;30950;53.086;21.576;2023-04-06T01:39:19;17.33;;;8.50;;
45206;SDS011;30950;53.086;21.576;2023-04-06T01:41:46;17.15;;;8.30;;
45206;SDS011;30950;53.086;21.576;2023-04-06T01:44:18;14.63;;;8.00;;
45206;SDS011;30950;53.086;21.576;2023-04-06T01:46:55;15.35;;;8.02;;
45206;SDS011;30950;53.086;21.576;2023-04-06T01:49:23;19.98;;;8.98;;
45206;SDS011;30950;53.086;21.576;2023-04-06T01:51:54;13.05;;;7.65;;
45206;SDS011;30950;53.086;21.576;2023-04-06T01:54:21;18.67;;;8.60;;
45206;SDS011;30950;53.086;21.576;2023-04-06T01:57:15;15.85;;;7.47;;
45206;SDS011;30950;53.086;21.576;2023-04-06T01:59:54;17.48;;;8.50;;
45206;SDS011;30950;53.086;21.576;2023-04-06T02:02:39;17.42;;;8.45;;
45206;SDS011;30950;53.086;21.576;2023-04-06T02:05:13;14.23;;;7.25;;
45206;SDS011;30950;53.086;21.576;2023-04-06T02:07:41;15.13;;;8.10;;
45206;SDS011;30950;53.086;21.576;2023-04-06T02:10:13;14.57;;;6.60;;
45206;SDS011;30950;53.086;21.576;2023-04-06T02:12:43;12.20;;;6.53;;
45206;SDS011;30950;53.086;21.576;2023-04-06T02:15:16;13.90;;;7.30;;
45206;SDS011;30950;53.086;21.576;2023-04-06T02:17:44;14.80;;;6.55;;
45206;SDS011;30950;53.086;21.576;2023-04-06T02:20:11;11.55;;;5.93;;
45206;SDS011;30950;53.086;21.576;2023-04-06T02:22:39;12.75;;;6.07;;
45206;SDS011;30950;53.086;21.576;2023-04-06T02:25:07;13.68;;;6.68;;
45206;SDS011;30950;53.086;21.576;2023-04-06T02:27:34;13.60;;;6.65;;
45206;SDS011;30950;53.086;21.576;2023-04-06T02:30:03;12.35;;;6.85;;
45206;SDS011;30950;53.086;21.576;2023-04-06T02:32:31;11.55;;;6.47;;
45206;SDS011;30950;53.086;21.576;2023-04-06T02:34:58;11.10;;;5.97;;
45206;SDS011;30950;53.086;21.576;2023-04-06T02:37:25;12.18;;;6.50;;
45206;SDS011;30950;53.086;21.576;2023-04-06T02:39:52;10.38;;;6.88;;
45206;SDS011;30950;53.086;21.576;2023-04-06T02:42:21;13.20;;;6.43;;
45206;SDS011;30950;53.086;21.576;2023-04-06T02:44:51;12.82;;;6.60;;
45206;SDS011;30950;53.086;21.576;2023-04-06T02:47:21;11.43;;;6.40;;
45206;SDS011;30950;53.086;21.576;2023-04-06T02:49:50;13.40;;;7.32;;
45206;SDS011;30950;53.086;21.576;2023-04-06T02:52:17;11.63;;;6.70;;
45206;SDS011;30950;53.086;21.576;2023-04-06T02:54:45;10.55;;;6.40;;
45206;SDS011;30950;53.086;21.576;2023-04-06T02:57:15;12.95;;;6.50;;
45206;SDS011;30950;53.086;21.576;2023-04-06T02:59:44;9.85;;;6.13;;
45206;SDS011;30950;53.086;21.576;2023-04-06T03:02:19;14.43;;;7.05;;
45206;SDS011;30950;53.086;21.576;2023-04-06T03:04:47;10.60;;;6.38;;
45206;SDS011;30950;53.086;21.576;2023-04-06T03:07:26;11.20;;;6.25;;
45206;SDS011;30950;53.086;21.576;2023-04-06T03:09:54;14.32;;;6.95;;
45206;SDS011;30950;53.086;21.576;2023-04-06T03:12:21;12.70;;;7.13;;
45206;SDS011;30950;53.086;21.576;2023-04-06T03:15:08;10.65;;;5.97;;
45206;SDS011;30950;53.086;21.576;2023-04-06T03:17:39;11.02;;;6.15;;
45206;SDS011;30950;53.086;21.576;2023-04-06T03:20:12;10.63;;;6.55;;
45206;SDS011;30950;53.086;21.576;2023-04-06T03:22:39;11.07;;;6.57;;
45206;SDS011;30950;53.086;21.576;2023-04-06T03:25:10;12.63;;;6.53;;
45206;SDS011;30950;53.086;21.576;2023-04-06T03:27:38;15.77;;;7.40;;
45206;SDS011;30950;53.086;21.576;2023-04-06T03:30:09;11.02;;;6.32;;
45206;SDS011;30950;53.086;21.576;2023-04-06T03:32:37;10.52;;;6.13;;
45206;SDS011;30950;53.086;21.576;2023-04-06T03:35:04;15.02;;;7.53;;
45206;SDS011;30950;53.086;21.576;2023-04-06T03:37:32;15.48;;;7.75;;
45206;SDS011;30950;53.086;21.576;2023-04-06T03:40:02;14.10;;;6.88;;
45206;SDS011;30950;53.086;21.576;2023-04-06T03:42:30;16.02;;;7.20;;
45206;SDS011;30950;53.086;21.576;2023-04-06T03:45:08;13.25;;;7.07;;
45206;SDS011;30950;53.086;21.576;2023-04-06T03:47:42;12.23;;;6.65;;
45206;SDS011;30950;53.086;21.576;2023-04-06T03:50:10;13.32;;;6.20;;
45206;SDS011;30950;53.086;21.576;2023-04-06T03:52:38;11.18;;;6.47;;
45206;SDS011;30950;53.086;21.576;2023-04-06T03:55:05;15.43;;;7.32;;
45206;SDS011;30950;53.086;21.576;2023-04-06T03:57:35;13.10;;;6.53;;
45206;SDS011;30950;53.086;21.576;2023-04-06T04:00:04;11.95;;;6.28;;
45206;SDS011;30950;53.086;21.576;2023-04-06T04:02:38;12.65;;;7.07;;
45206;SDS011;30950;53.086;21.576;2023-04-06T04:05:06;9.60;;;5.55;;
45206;SDS011;30950;53.086;21.576;2023-04-06T04:07:34;12.88;;;6.57;;
45206;SDS011;30950;53.086;21.576;2023-04-06T04:10:01;11.07;;;6.40;;
45206;SDS011;30950;53.086;21.576;2023-04-06T04:12:30;10.40;;;6.07;;
45206;SDS011;30950;53.086;21.576;2023-04-06T04:14:58;9.25;;;5.70;;
45206;SDS011;30950;53.086;21.576;2023-04-06T04:17:25;10.43;;;6.10;;
45206;SDS011;30950;53.086;21.576;2023-04-06T04:19:52;10.02;;;5.85;;
45206;SDS011;30950;53.086;21.576;2023-04-06T04:22:20;12.80;;;6.57;;
45206;SDS011;30950;53.086;21.576;2023-04-06T04:24:47;10.60;;;6.50;;
45206;SDS011;30950;53.086;21.576;2023-04-06T04:27:15;9.75;;;5.93;;
45206;SDS011;30950;53.086;21.576;2023-04-06T04:29:42;13.65;;;6.13;;
45206;SDS011;30950;53.086;21.576;2023-04-06T04:32:12;9.18;;;5.50;;
45206;SDS011;30950;53.086;21.576;2023-04-06T04:34:39;9.80;;;5.85;;
45206;SDS011;30950;53.086;21.576;2023-04-06T04:37:11;9.85;;;5.60;;
45206;SDS011;30950;53.086;21.576;2023-04-06T04:39:47;8.65;;;5.70;;
45206;SDS011;30950;53.086;21.576;2023-04-06T04:42:15;11.02;;;6.00;;
45206;SDS011;30950;53.086;21.576;2023-04-06T04:44:47;12.35;;;5.65;;
45206;SDS011;30950;53.086;21.576;2023-04-06T04:47:20;14.85;;;6.05;;
45206;SDS011;30950;53.086;21.576;2023-04-06T04:49:47;9.63;;;6.22;;
45206;SDS011;30950;53.086;21.576;2023-04-06T04:52:20;11.23;;;5.95;;
45206;SDS011;30950;53.086;21.576;2023-04-06T04:54:56;10.73;;;5.55;;
45206;SDS011;30950;53.086;21.576;2023-04-06T04:57:27;14.52;;;5.88;;
45206;SDS011;30950;53.086;21.576;2023-04-06T04:59:54;10.00;;;5.43;;
45206;SDS011;30950;53.086;21.576;2023-04-06T05:02:23;9.75;;;5.25;;
45206;SDS011;30950;53.086;21.576;2023-04-06T05:05:10;8.18;;;4.55;;
45206;SDS011;30950;53.086;21.576;2023-04-06T05:07:39;8.82;;;5.20;;
45206;SDS011;30950;53.086;21.576;2023-04-06T05:10:11;9.57;;;5.47;;
45206;SDS011;30950;53.086;21.576;2023-04-06T05:12:49;9.40;;;5.43;;
45206;SDS011;30950;53.086;21.576;2023-04-06T05:15:16;9.10;;;4.88;;
45206;SDS011;30950;53.086;21.576;2023-04-06T05:17:44;10.73;;;5.07;;
45206;SDS011;30950;53.086;21.576;2023-04-06T05:20:16;8.80;;;5.00;;
45206;SDS011;30950;53.086;21.576;2023-04-06T05:22:48;8.80;;;5.32;;
45206;SDS011;30950;53.086;21.576;2023-04-06T05:25:15;7.90;;;5.43;;
45206;SDS011;30950;53.086;21.576;2023-04-06T05:27:44;9.75;;;5.43;;
45206;SDS011;30950;53.086;21.576;2023-04-06T05:30:25;9.88;;;4.97;;
45206;SDS011;30950;53.086;21.576;2023-04-06T05:32:53;10.85;;;5.75;;
45206;SDS011;30950;53.086;21.576;2023-04-06T05:35:23;10.18;;;6.20;;
45206;SDS011;30950;53.086;21.576;2023-04-06T05:37:55;8.93;;;5.57;;
45206;SDS011;30950;53.086;21.576;2023-04-06T05:40:24;12.48;;;8.20;;
45206;SDS011;30950;53.086;21.576;2023-04-06T05:42:52;12.07;;;6.75;;
45206;SDS011;30950;53.086;21.576;2023-04-06T05:45:20;10.18;;;5.45;;
45206;SDS011;30950;53.086;21.576;2023-04-06T05:47:52;10.25;;;5.63;;
45206;SDS011;30950;53.086;21.576;2023-04-06T05:50:26;19.05;;;8.55;;
45206;SDS011;30950;53.086;21.576;2023-04-06T05:52:55;12.85;;;6.07;;
45206;SDS011;30950;53.086;21.576;2023-04-06T05:55:27;11.45;;;6.70;;
45206;SDS011;30950;53.086;21.576;2023-04-06T05:58:07;14.35;;;7.80;;
45206;SDS011;30950;53.086;21.576;2023-04-06T06:00:35;12.07;;;8.10;;
45206;SDS011;30950;53.086;21.576;2023-04-06T06:03:05;10.75;;;5.97;;
45206;SDS011;30950;53.086;21.576;2023-04-06T06:05:35;9.70;;;5.95;;
45206;SDS011;30950;53.086;21.576;2023-04-06T06:10:38;7.95;;;4.60;;
45206;SDS011;30950;53.086;21.576;2023-04-06T06:13:09;10.38;;;4.57;;
45206;SDS011;30950;53.086;21.576;2023-04-06T06:15:39;9.05;;;5.47;;
45206;SDS011;30950;53.086;21.576;2023-04-06T06:18:06;9.13;;;4.80;;
45206;SDS011;30950;53.086;21.576;2023-04-06T06:20:34;10.93;;;4.88;;
45206;SDS011;30950;53.086;21.576;2023-04-06T06:23:03;12.68;;;5.50;;
45206;SDS011;30950;53.086;21.576;2023-04-06T06:25:31;14.07;;;5.90;;
45206;SDS011;30950;53.086;21.576;2023-04-06T06:27:59;11.75;;;6.03;;
45206;SDS011;30950;53.086;21.576;2023-04-06T06:30:29;10.05;;;5.13;;
45206;SDS011;30950;53.086;21.576;2023-04-06T06:32:57;10.57;;;4.60;;
45206;SDS011;30950;53.086;21.576;2023-04-06T06:35:25;8.18;;;4.25;;
45206;SDS011;30950;53.086;21.576;2023-04-06T06:37:53;7.88;;;4.75;;
45206;SDS011;30950;53.086;21.576;2023-04-06T06:40:23;8.15;;;4.65;;
45206;SDS011;30950;53.086;21.576;2023-04-06T06:42:54;9.18;;;4.88;;
45206;SDS011;30950;53.086;21.576;2023-04-06T06:45:27;7.68;;;3.70;;
45206;SDS011;30950;53.086;21.576;2023-04-06T06:47:56;8.75;;;3.58;;
45206;SDS011;30950;53.086;21.576;2023-04-06T06:50:23;7.25;;;3.95;;
45206;SDS011;30950;53.086;21.576;2023-04-06T06:52:51;8.20;;;3.75;;
45206;SDS011;30950;53.086;21.576;2023-04-06T06:55:19;10.82;;;4.10;;
45206;SDS011;30950;53.086;21.576;2023-04-06T06:57:46;9.70;;;3.95;;
45206;SDS011;30950;53.086;21.576;2023-04-06T07:00:14;10.25;;;3.90;;
45206;SDS011;30950;53.086;21.576;2023-04-06T07:02:44;9.85;;;4.93;;
45206;SDS011;30950;53.086;21.576;2023-04-06T07:05:12;6.22;;;3.60;;
45206;SDS011;30950;53.086;21.576;2023-04-06T07:07:55;6.90;;;3.92;;
45206;SDS011;30950;53.086;21.576;2023-04-06T07:10:24;7.40;;;3.95;;
45206;SDS011;30950;53.086;21.576;2023-04-06T07:12:52;7.78;;;4.00;;
45206;SDS011;30950;53.086;21.576;2023-04-06T07:15:20;7.88;;;4.10;;
45206;SDS011;30950;53.086;21.576;2023-04-06T07:17:48;7.38;;;3.97;;
45206;SDS011;30950;53.086;21.576;2023-04-06T07:20:15;7.85;;;4.07;;
45206;SDS011;30950;53.086;21.576;2023-04-06T07:22:43;5.28;;;3.05;;
45206;SDS011;30950;53.086;21.576;2023-04-06T07:25:14;8.75;;;4.15;;
45206;SDS011;30950;53.086;21.576;2023-04-06T07:27:42;8.23;;;4.63;;
45206;SDS011;30950;53.086;21.576;2023-04-06T07:30:10;8.90;;;5.07;;
45206;SDS011;30950;53.086;21.576;2023-04-06T07:32:38;5.95;;;3.60;;
45206;SDS011;30950;53.086;21.576;2023-04-06T07:35:05;7.20;;;3.63;;
45206;SDS011;30950;53.086;21.576;2023-04-06T07:37:33;5.47;;;3.17;;
45206;SDS011;30950;53.086;21.576;2023-04-06T07:40:00;7.68;;;4.53;;
45206;SDS011;30950;53.086;21.576;2023-04-06T07:42:29;7.32;;;4.63;;
45206;SDS011;30950;53.086;21.576;2023-04-06T07:44:56;7.85;;;3.80;;
45206;SDS011;30950;53.086;21.576;2023-04-06T07:47:24;8.05;;;4.68;;
45206;SDS011;30950;53.086;21.576;2023-04-06T07:49:51;7.30;;;4.43;;
45206;SDS011;30950;53.086;21.576;2023-04-06T07:52:18;10.40;;;4.97;;
45206;SDS011;30950;53.086;21.576;2023-04-06T07:54:46;6.13;;;3.88;;
45206;SDS011;30950;53.086;21.576;2023-04-06T07:57:15;5.78;;;3.80;;
45206;SDS011;30950;53.086;21.576;2023-04-06T07:59:42;7.90;;;4.20;;
45206;SDS011;30950;53.086;21.576;2023-04-06T08:02:10;7.07;;;4.05;;
45206;SDS011;30950;53.086;21.576;2023-04-06T08:04:37;5.72;;;3.58;;
45206;SDS011;30950;53.086;21.576;2023-04-06T08:07:04;7.07;;;3.85;;
45206;SDS011;30950;53.086;21.576;2023-04-06T08:09:32;5.95;;;3.70;;
45206;SDS011;30950;53.086;21.576;2023-04-06T08:11:59;6.80;;;4.00;;
45206;SDS011;30950;53.086;21.576;2023-04-06T08:14:26;9.00;;;3.92;;
45206;SDS011;30950;53.086;21.576;2023-04-06T08:16:53;6.95;;;4.22;;
45206;SDS011;30950;53.086;21.576;2023-04-06T08:19:20;9.02;;;4.90;;
45206;SDS011;30950;53.086;21.576;2023-04-06T08:21:48;10.40;;;5.50;;
45206;SDS011;30950;53.086;21.576;2023-04-06T08:24:15;6.00;;;4.20;;
45206;SDS011;30950;53.086;21.576;2023-04-06T08:26:42;8.38;;;4.57;;
45206;SDS011;30950;53.086;21.576;2023-04-06T08:29:10;8.50;;;4.38;;
45206;SDS011;30950;53.086;21.576;2023-04-06T08:31:38;6.72;;;4.40;;
45206;SDS011;30950;53.086;21.576;2023-04-06T08:34:05;7.88;;;5.47;;
45206;SDS011;30950;53.086;21.576;2023-04-06T08:36:36;7.82;;;4.72;;
45206;SDS011;30950;53.086;21.576;2023-04-06T08:39:03;7.75;;;4.88;;
45206;SDS011;30950;53.086;21.576;2023-04-06T08:41:30;9.35;;;4.75;;
45206;SDS011;30950;53.086;21.576;2023-04-06T08:43:59;9.45;;;5.85;;
45206;SDS011;30950;53.086;21.576;2023-04-06T08:46:30;10.88;;;7.07;;
45206;SDS011;30950;53.086;21.576;2023-04-06T08:48:59;10.80;;;6.25;;
45206;SDS011;30950;53.086;21.576;2023-04-06T08:51:28;10.05;;;4.88;;
45206;SDS011;30950;53.086;21.576;2023-04-06T08:53:57;7.93;;;4.30;;
45206;SDS011;30950;53.086;21.576;2023-04-06T08:56:26;9.98;;;4.22;;
45206;SDS011;30950;53.086;21.576;2023-04-06T08:58:55;7.68;;;4.43;;
45206;SDS011;30950;53.086;21.576;2023-04-06T09:01:24;8.13;;;4.75;;
45206;SDS011;30950;53.086;21.576;2023-04-06T09:03:57;11.75;;;5.38;;
45206;SDS011;30950;53.086;21.576;2023-04-06T09:06:26;9.13;;;5.40;;
45206;SDS011;30950;53.086;21.576;2023-04-06T09:08:53;11.60;;;5.40;;
45206;SDS011;30950;53.086;21.576;2023-04-06T09:11:22;7.78;;;5.28;;
45206;SDS011;30950;53.086;21.576;2023-04-06T09:13:52;10.45;;;5.57;;
45206;SDS011;30950;53.086;21.576;2023-04-06T09:16:21;7.95;;;5.13;;
45206;SDS011;30950;53.086;21.576;2023-04-06T09:18:53;7.57;;;4.88;;
45206;SDS011;30950;53.086;21.576;2023-04-06T09:21:21;8.90;;;5.72;;
45206;SDS011;30950;53.086;21.576;2023-04-06T09:24:00;11.60;;;6.03;;
45206;SDS011;30950;53.086;21.576;2023-04-06T09:26:29;13.07;;;5.40;;
45206;SDS011;30950;53.086;21.576;2023-04-06T09:28:57;9.40;;;5.03;;
45206;SDS011;30950;53.086;21.576;2023-04-06T09:31:28;7.93;;;4.88;;
45206;SDS011;30950;53.086;21.576;2023-04-06T09:33:59;7.38;;;4.53;;
45206;SDS011;30950;53.086;21.576;2023-04-06T09:36:34;6.90;;;4.00;;
45206;SDS011;30950;53.086;21.576;2023-04-06T09:39:07;8.55;;;4.97;;
45206;SDS011;30950;53.086;21.576;2023-04-06T09:41:35;8.07;;;5.50;;
45206;SDS011;30950;53.086;21.576;2023-04-06T09:46:40;9.02;;;5.15;;
45206;SDS011;30950;53.086;21.576;2023-04-06T09:49:28;11.45;;;4.82;;
45206;SDS011;30950;53.086;21.576;2023-04-06T09:51:59;7.70;;;5.10;;
45206;SDS011;30950;53.086;21.576;2023-04-06T09:54:28;6.35;;;4.22;;
45206;SDS011;30950;53.086;21.576;2023-04-06T09:59:50;7.18;;;4.97;;
45206;SDS011;30950;53.086;21.576;2023-04-06T10:05:42;13.00;;;5.25;;
45206;SDS011;30950;53.086;21.576;2023-04-06T10:08:13;7.40;;;4.35;;
45206;SDS011;30950;53.086;21.576;2023-04-06T10:10:42;9.23;;;4.15;;
45206;SDS011;30950;53.086;21.576;2023-04-06T10:13:10;7.95;;;4.38;;
45206;SDS011;30950;53.086;21.576;2023-04-06T10:15:38;7.32;;;4.95;;
45206;SDS011;30950;53.086;21.576;2023-04-06T10:18:11;5.72;;;4.30;;
45206;SDS011;30950;53.086;21.576;2023-04-06T10:20:39;7.00;;;4.25;;
45206;SDS011;30950;53.086;21.576;2023-04-06T10:23:16;7.45;;;4.22;;
45206;SDS011;30950;53.086;21.576;2023-04-06T10:25:56;7.47;;;4.20;;
45206;SDS011;30950;53.086;21.576;2023-04-06T10:28:24;7.45;;;4.22;;
45206;SDS011;30950;53.086;21.576;2023-04-06T10:30:59;5.93;;;4.30;;
45206;SDS011;30950;53.086;21.576;2023-04-06T10:33:28;8.10;;;4.03;;
45206;SDS011;30950;53.086;21.576;2023-04-06T10:35:55;7.82;;;3.90;;
45206;SDS011;30950;53.086;21.576;2023-04-06T10:38:33;6.68;;;3.97;;
45206;SDS011;30950;53.086;21.576;2023-04-06T10:41:05;7.60;;;4.03;;
45206;SDS011;30950;53.086;21.576;2023-04-06T10:43:34;6.53;;;3.88;;
45206;SDS011;30950;53.086;21.576;2023-04-06T10:46:05;6.38;;;3.80;;
45206;SDS011;30950;53.086;21.576;2023-04-06T10:48:51;6.40;;;3.90;;
45206;SDS011;30950;53.086;21.576;2023-04-06T10:53:54;8.10;;;3.55;;
45206;SDS011;30950;53.086;21.576;2023-04-06T10:56:22;5.93;;;3.55;;
45206;SDS011;30950;53.086;21.576;2023-04-06T10:58:52;6.45;;;3.83;;
45206;SDS011;30950;53.086;21.576;2023-04-06T11:01:24;7.82;;;4.03;;
45206;SDS011;30950;53.086;21.576;2023-04-06T11:03:55;6.45;;;3.53;;
45206;SDS011;30950;53.086;21.576;2023-04-06T11:06:27;4.78;;;3.08;;
45206;SDS011;30950;53.086;21.576;2023-04-06T11:08:56;9.52;;;3.80;;
45206;SDS011;30950;53.086;21.576;2023-04-06T11:11:24;8.50;;;4.07;;
45206;SDS011;30950;53.086;21.576;2023-04-06T11:16:24;8.25;;;4.07;;
45206;SDS011;30950;53.086;21.576;2023-04-06T11:19:00;6.75;;;3.33;;
45206;SDS011;30950;53.086;21.576;2023-04-06T11:21:36;7.85;;;4.40;;
45206;SDS011;30950;53.086;21.576;2023-04-06T11:24:12;6.93;;;4.10;;
45206;SDS011;30950;53.086;21.576;2023-04-06T11:29:21;5.60;;;3.47;;
45206;SDS011;30950;53.086;21.576;2023-04-06T11:31:50;5.15;;;3.55;;
45206;SDS011;30950;53.086;21.576;2023-04-06T11:34:19;6.63;;;3.60;;
45206;SDS011;30950;53.086;21.576;2023-04-06T11:36:49;6.68;;;3.75;;
45206;SDS011;30950;53.086;21.576;2023-04-06T11:39:21;8.85;;;3.42;;
45206;SDS011;30950;53.086;21.576;2023-04-06T11:41:50;6.07;;;3.53;;
45206;SDS011;30950;53.086;21.576;2023-04-06T11:47:00;6.35;;;4.03;;
45206;SDS011;30950;53.086;21.576;2023-04-06T11:49:29;6.03;;;3.78;;
45206;SDS011;30950;53.086;21.576;2023-04-06T11:51:57;5.60;;;3.33;;
45206;SDS011;30950;53.086;21.576;2023-04-06T11:54:36;5.72;;;3.88;;
45206;SDS011;30950;53.086;21.576;2023-04-06T11:57:04;9.63;;;5.13;;
45206;SDS011;30950;53.086;21.576;2023-04-06T11:59:32;5.60;;;3.97;;
45206;SDS011;30950;53.086;21.576;2023-04-06T12:02:01;7.07;;;3.80;;
45206;SDS011;30950;53.086;21.576;2023-04-06T12:04:29;6.13;;;3.90;;
45206;SDS011;30950;53.086;21.576;2023-04-06T12:06:58;5.97;;;4.00;;
45206;SDS011;30950;53.086;21.576;2023-04-06T12:09:26;7.78;;;3.92;;
45206;SDS011;30950;53.086;21.576;2023-04-06T12:11:53;8.48;;;4.40;;
45206;SDS011;30950;53.086;21.576;2023-04-06T12:14:20;9.00;;;4.35;;
45206;SDS011;30950;53.086;21.576;2023-04-06T12:16:47;13.25;;;5.65;;
45206;SDS011;30950;53.086;21.576;2023-04-06T12:19:15;7.53;;;4.40;;
45206;SDS011;30950;53.086;21.576;2023-04-06T12:21:42;6.88;;;4.60;;
45206;SDS011;30950;53.086;21.576;2023-04-06T12:24:10;7.60;;;4.47;;
45206;SDS011;30950;53.086;21.576;2023-04-06T12:26:37;8.80;;;4.38;;
45206;SDS011;30950;53.086;21.576;2023-04-06T12:29:04;6.55;;;3.97;;
45206;SDS011;30950;53.086;21.576;2023-04-06T12:31:36;7.80;;;3.80;;
45206;SDS011;30950;53.086;21.576;2023-04-06T12:34:08;5.90;;;3.25;;
45206;SDS011;30950;53.086;21.576;2023-04-06T12:36:36;7.30;;;3.70;;
45206;SDS011;30950;53.086;21.576;2023-04-06T12:39:05;5.75;;;3.60;;
45206;SDS011;30950;53.086;21.576;2023-04-06T12:41:32;9.77;;;4.97;;
45206;SDS011;30950;53.086;21.576;2023-04-06T12:44:00;6.30;;;3.53;;
45206;SDS011;30950;53.086;21.576;2023-04-06T12:46:29;5.20;;;3.40;;
45206;SDS011;30950;53.086;21.576;2023-04-06T12:48:58;6.45;;;3.90;;
45206;SDS011;30950;53.086;21.576;2023-04-06T12:51:28;7.85;;;4.45;;
45206;SDS011;30950;53.086;21.576;2023-04-06T12:53:56;7.22;;;3.90;;
45206;SDS011;30950;53.086;21.576;2023-04-06T12:56:24;7.47;;;4.07;;
45206;SDS011;30950;53.086;21.576;2023-04-06T12:58:52;6.85;;;3.88;;
45206;SDS011;30950;53.086;21.576;2023-04-06T13:01:19;7.18;;;4.07;;
45206;SDS011;30950;53.086;21.576;2023-04-06T13:03:48;5.90;;;3.45;;
45206;SDS011;30950;53.086;21.576;2023-04-06T13:06:15;6.80;;;4.43;;
45206;SDS011;30950;53.086;21.576;2023-04-06T13:08:42;6.85;;;3.38;;
45206;SDS011;30950;53.086;21.576;2023-04-06T13:11:10;5.95;;;3.80;;
45206;SDS011;30950;53.086;21.576;2023-04-06T13:13:37;6.80;;;4.13;;
45206;SDS011;30950;53.086;21.576;2023-04-06T13:16:06;6.10;;;3.72;;
45206;SDS011;30950;53.086;21.576;2023-04-06T13:18:35;6.80;;;4.30;;
45206;SDS011;30950;53.086;21.576;2023-04-06T13:21:05;6.90;;;4.28;;
45206;SDS011;30950;53.086;21.576;2023-04-06T13:23:33;8.68;;;3.92;;
45206;SDS011;30950;53.086;21.576;2023-04-06T13:26:06;7.70;;;3.83;;
45206;SDS011;30950;53.086;21.576;2023-04-06T13:28:35;6.97;;;4.18;;
45206;SDS011;30950;53.086;21.576;2023-04-06T13:31:06;7.93;;;4.10;;
45206;SDS011;30950;53.086;21.576;2023-04-06T13:33:34;6.72;;;4.28;;
45206;SDS011;30950;53.086;21.576;2023-04-06T13:36:02;6.97;;;3.80;;
45206;SDS011;30950;53.086;21.576;2023-04-06T13:38:30;6.05;;;4.07;;
45206;SDS011;30950;53.086;21.576;2023-04-06T13:40:57;7.03;;;4.20;;
45206;SDS011;30950;53.086;21.576;2023-04-06T13:43:25;10.48;;;6.15;;
45206;SDS011;30950;53.086;21.576;2023-04-06T13:45:54;8.07;;;4.63;;
45206;SDS011;30950;53.086;21.576;2023-04-06T13:48:25;13.85;;;9.23;;
45206;SDS011;30950;53.086;21.576;2023-04-06T13:50:52;8.32;;;3.97;;
45206;SDS011;30950;53.086;21.576;2023-04-06T13:53:20;7.20;;;4.40;;
45206;SDS011;30950;53.086;21.576;2023-04-06T13:55:54;7.60;;;4.40;;
45206;SDS011;30950;53.086;21.576;2023-04-06T13:58:22;8.00;;;4.30;;
45206;SDS011;30950;53.086;21.576;2023-04-06T14:00:49;13.32;;;6.07;;
45206;SDS011;30950;53.086;21.576;2023-04-06T14:03:18;7.10;;;4.43;;
45206;SDS011;30950;53.086;21.576;2023-04-06T14:05:45;6.80;;;4.57;;
45206;SDS011;30950;53.086;21.576;2023-04-06T14:08:13;6.50;;;4.72;;
45206;SDS011;30950;53.086;21.576;2023-04-06T14:10:40;7.05;;;4.13;;
45206;SDS011;30950;53.086;21.576;2023-04-06T14:13:09;8.15;;;4.97;;
45206;SDS011;30950;53.086;21.576;2023-04-06T14:15:37;9.77;;;5.20;;
45206;SDS011;30950;53.086;21.576;2023-04-06T14:18:04;10.00;;;6.30;;
45206;SDS011;30950;53.086;21.576;2023-04-06T14:20:32;9.73;;;5.18;;
45206;SDS011;30950;53.086;21.576;2023-04-06T14:23:00;8.32;;;5.38;;
45206;SDS011;30950;53.086;21.576;2023-04-06T14:25:28;12.27;;;7.40;;
45206;SDS011;30950;53.086;21.576;2023-04-06T14:27:58;10.80;;;5.75;;
45206;SDS011;30950;53.086;21.576;2023-04-06T14:30:26;8.32;;;4.90;;
45206;SDS011;30950;53.086;21.576;2023-04-06T14:32:56;11.13;;;6.20;;
45206;SDS011;30950;53.086;21.576;2023-04-06T14:35:24;13.55;;;7.40;;
45206;SDS011;30950;53.086;21.576;2023-04-06T14:37:55;12.63;;;7.38;;
45206;SDS011;30950;53.086;21.576;2023-04-06T14:40:24;12.57;;;6.05;;
45206;SDS011;30950;53.086;21.576;2023-04-06T14:42:52;8.35;;;6.10;;
45206;SDS011;30950;53.086;21.576;2023-04-06T14:45:19;6.70;;;4.95;;
45206;SDS011;30950;53.086;21.576;2023-04-06T14:47:48;10.15;;;6.85;;
45206;SDS011;30950;53.086;21.576;2023-04-06T14:50:16;10.32;;;7.40;;
45206;SDS011;30950;53.086;21.576;2023-04-06T14:52:43;8.65;;;6.35;;
45206;SDS011;30950;53.086;21.576;2023-04-06T14:55:12;10.38;;;6.75;;
45206;SDS011;30950;53.086;21.576;2023-04-06T14:57:40;6.15;;;4.57;;
45206;SDS011;30950;53.086;21.576;2023-04-06T15:00:08;9.45;;;6.07;;
45206;SDS011;30950;53.086;21.576;2023-04-06T15:02:36;10.82;;;5.72;;
45206;SDS011;30950;53.086;21.576;2023-04-06T15:05:04;9.15;;;5.88;;